createdAt,value
2022-08-14T00:00:11.726Z,92522.78
2022-08-14T00:01:54.397Z,92517.41
2022-08-14T00:03:29.408Z,92519.38
2022-08-14T00:05:01.312Z,92508.13
2022-08-14T00:06:33.383Z,92510.06
2022-08-14T00:08:04.973Z,92512.34
2022-08-14T00:10:01.930Z,92504.59
2022-08-14T00:11:37.761Z,92498.34
2022-08-14T00:13:15.393Z,92507.59
2022-08-14T00:14:46.930Z,92503.31
2022-08-14T00:16:41.107Z,92497.88
2022-08-14T00:18:30.472Z,92504.09
2022-08-14T00:20:10.525Z,92504.78
2022-08-14T00:21:42.613Z,92495.78
2022-08-14T00:23:17.452Z,92499.97
2022-08-14T00:24:49.413Z,92491.75
2022-08-14T00:26:21.604Z,92502.13
2022-08-14T00:27:55.150Z,92501.72
2022-08-14T00:29:27.109Z,92496.28
2022-08-14T00:31:00.200Z,92502.47
2022-08-14T00:32:55.736Z,92498.25
2022-08-14T00:34:35.435Z,92499.81
2022-08-14T00:36:35.190Z,92489.28
2022-08-14T00:38:07.165Z,92489.28
2022-08-14T00:39:40.561Z,92486.31
2022-08-14T00:41:14.370Z,92487.09
2022-08-14T00:42:55.850Z,92483.22
2022-08-14T00:44:32.728Z,92478.94
2022-08-14T00:46:07.994Z,92473.03
2022-08-14T00:47:43.284Z,92485.06
2022-08-14T00:49:18.000Z,92480.84
2022-08-14T00:50:55.106Z,92477.41
2022-08-14T00:52:27.956Z,92478.66
2022-08-14T00:53:59.594Z,92477.16
2022-08-14T00:55:31.643Z,92480.22
2022-08-14T00:57:07.654Z,92481.31
2022-08-14T00:58:45.280Z,92473.47
2022-08-14T01:00:36.990Z,92469.53
2022-08-14T01:02:12.711Z,92473.03
2022-08-14T01:03:44.827Z,92471.81
2022-08-14T01:05:26.069Z,92464.44
2022-08-14T01:07:21.662Z,92467.94
2022-08-14T01:08:59.358Z,92469.06
2022-08-14T01:10:52.532Z,92469.41
2022-08-14T01:12:27.358Z,92473.66
2022-08-14T01:14:05.019Z,92469.00
2022-08-14T01:15:55.355Z,92470.22
2022-08-14T01:17:50.604Z,92466.69
2022-08-14T01:19:43.325Z,92464.34
2022-08-14T01:21:16.245Z,92466.28
2022-08-14T01:22:50.093Z,92462.84
2022-08-14T01:24:28.919Z,92465.16
2022-08-14T01:26:06.109Z,92470.22
2022-08-14T01:27:52.534Z,92471.66
2022-08-14T01:29:59.367Z,92470.50
2022-08-14T01:31:20.987Z,92470.44
2022-08-14T01:32:53.139Z,92465.44
2022-08-14T01:35:20.711Z,92464.63
2022-08-14T01:36:23.086Z,92466.94
2022-08-14T01:37:56.454Z,92465.41
2022-08-14T01:39:28.582Z,92470.44
2022-08-14T01:41:11.884Z,92469.72
2022-08-14T01:42:47.246Z,92465.44
2022-08-14T01:44:33.417Z,92468.56
2022-08-14T01:46:24.434Z,92464.34
2022-08-14T01:48:03.123Z,92459.19
2022-08-14T01:49:46.158Z,92462.59
2022-08-14T01:51:28.606Z,92457.09
2022-08-14T01:53:01.467Z,92460.25
2022-08-14T01:54:38.129Z,92448.94
2022-08-14T01:56:12.079Z,92451.66
2022-08-14T01:58:01.505Z,92440.34
2022-08-14T01:59:44.403Z,92441.50
2022-08-14T02:01:16.865Z,92449.97
2022-08-14T02:02:52.794Z,92444.84
2022-08-14T02:04:54.899Z,92443.66
2022-08-14T02:06:33.293Z,92448.72
2022-08-14T02:08:09.313Z,92438.63
2022-08-14T02:09:42.514Z,92448.34
2022-08-14T02:11:18.648Z,92442.13
2022-08-14T02:12:56.868Z,92448.34
2022-08-14T02:14:31.155Z,92441.34
2022-08-14T02:16:22.015Z,92440.50
2022-08-14T02:17:54.432Z,92440.44
2022-08-14T02:19:27.468Z,92452.03
2022-08-14T02:21:04.680Z,92446.59
2022-08-14T02:22:47.235Z,92449.69
2022-08-14T02:24:39.068Z,92449.66
2022-08-14T02:26:24.981Z,92450.78
2022-08-14T02:28:25.935Z,92447.19
2022-08-14T02:30:00.435Z,92438.09
2022-08-14T02:31:42.365Z,92436.47
2022-08-14T02:33:15.106Z,92428.69
2022-08-14T02:34:48.307Z,92436.84
2022-08-14T02:37:05.395Z,92434.13
2022-08-14T02:38:30.377Z,92437.63
2022-08-14T02:49:03.870Z,92452.78
2022-08-14T02:50:33.550Z,92444.88
2022-08-14T02:52:55.277Z,92439.75
2022-08-14T02:54:02.026Z,92432.66
2022-08-14T02:55:35.515Z,92440.75
2022-08-14T02:57:15.169Z,92428.31
2022-08-14T02:59:01.432Z,92424.00
2022-08-14T03:00:40.121Z,92432.16
2022-08-14T03:02:48.629Z,92436.44
2022-08-14T03:04:06.188Z,92443.09
2022-08-14T03:05:42.096Z,92445.09
2022-08-14T03:07:17.145Z,92438.53
2022-08-14T03:08:48.672Z,92444.00
2022-08-14T03:10:28.015Z,92446.72
2022-08-14T03:12:05.137Z,92442.81
2022-08-14T03:13:37.422Z,92431.88
2022-08-14T03:15:19.070Z,92434.88
2022-08-14T03:16:50.910Z,92431.75
2022-08-14T03:18:31.372Z,92434.09
2022-08-14T03:20:06.495Z,92428.31
2022-08-14T03:21:43.841Z,92435.25
2022-08-14T03:23:15.971Z,92433.34
2022-08-14T03:24:48.321Z,92434.53
2022-08-14T03:26:29.973Z,92429.88
2022-08-14T03:28:07.224Z,92433.88
2022-08-14T03:29:40.941Z,92444.41
2022-08-14T03:31:13.479Z,92444.88
2022-08-14T03:32:45.229Z,92442.94
2022-08-14T03:34:24.727Z,92444.44
2022-08-14T03:37:39.279Z,92447.94
2022-08-14T03:39:12.878Z,92449.88
2022-08-14T03:39:57.420Z,92456.06
2022-08-14T03:41:33.074Z,92454.84
2022-08-14T03:43:08.439Z,92463.78
2022-08-14T03:53:11.819Z,92467.19
2022-08-14T03:54:46.393Z,92470.00
2022-08-14T03:56:26.678Z,92461.50
2022-08-14T03:58:00.387Z,92469.63
2022-08-14T03:59:32.762Z,92470.41
2022-08-14T04:01:06.474Z,92467.31
2022-08-14T04:02:47.242Z,92478.28
2022-08-14T04:04:22.196Z,92482.22
2022-08-14T04:09:01.912Z,92482.22
2022-08-14T04:10:36.266Z,92485.72
2022-08-14T04:12:13.582Z,92497.72
2022-08-14T04:13:46.686Z,92487.22
2022-08-14T04:15:20.134Z,92491.50
2022-08-14T04:16:55.153Z,92498.50
2022-08-14T04:18:26.818Z,92498.50
2022-08-14T04:19:59.597Z,92503.88
2022-08-14T04:21:39.853Z,92503.75
2022-08-14T04:23:23.456Z,92499.00
2022-08-14T04:24:55.414Z,92497.88
2022-08-14T04:26:42.423Z,92507.25
2022-08-14T04:29:07.151Z,92506.94
2022-08-14T04:30:07.866Z,92502.28
2022-08-14T04:33:00.017Z,92499.22
2022-08-14T04:33:32.296Z,92505.09
2022-08-14T04:35:07.624Z,92498.06
2022-08-14T04:37:01.124Z,92499.22
2022-08-14T04:38:54.922Z,92502.28
2022-08-14T04:40:47.941Z,92495.22
2022-08-14T04:42:47.353Z,92495.94
2022-08-14T04:44:35.758Z,92496.66
2022-08-14T04:46:55.856Z,92493.94
2022-08-14T04:48:31.534Z,92495.06
2022-08-14T04:50:06.633Z,92497.44
2022-08-14T04:51:46.832Z,92495.50
2022-08-14T04:53:35.407Z,92493.22
2022-08-14T04:55:08.357Z,92497.16
2022-08-14T04:56:39.933Z,92496.81
2022-08-14T04:58:32.332Z,92499.56
2022-08-14T05:00:06.727Z,92496.50
2022-08-14T05:01:49.981Z,92490.72
2022-08-14T05:03:26.882Z,92487.63
2022-08-14T05:04:59.786Z,92486.94
2022-08-14T05:06:37.848Z,92485.41
2022-08-14T05:08:32.360Z,92488.97
2022-08-14T05:10:13.041Z,92484.00
2022-08-14T05:11:48.279Z,92493.38
2022-08-14T05:13:19.964Z,92495.72
2022-08-14T05:14:56.839Z,92499.97
2022-08-14T05:16:31.269Z,92493.72
2022-08-14T05:18:17.266Z,92500.31
2022-08-14T05:21:05.013Z,92497.94
2022-08-14T05:22:17.421Z,92492.94
2022-08-14T05:23:52.123Z,92499.16
2022-08-14T05:25:25.634Z,92507.31
2022-08-14T05:27:03.586Z,92506.59
2022-08-14T05:28:35.378Z,92510.47
2022-08-14T05:30:08.676Z,92522.75
2022-08-14T05:31:40.837Z,92507.81
2022-08-14T05:56:11.737Z,92499.22
2022-08-14T05:57:48.132Z,92493.78
2022-08-14T05:59:19.785Z,92494.88
2022-08-14T06:01:09.664Z,92493.59
2022-08-14T06:02:43.373Z,92496.81
2022-08-14T06:04:16.624Z,92501.66
2022-08-14T06:05:51.981Z,92505.75
2022-08-14T06:07:24.519Z,92510.09
2022-08-14T06:08:56.684Z,92503.59
2022-08-14T06:10:30.134Z,92506.78
2022-08-14T06:12:02.447Z,92508.34
2022-08-14T06:13:45.385Z,92507.22
2022-08-14T06:15:17.960Z,92501.91
2022-08-14T06:16:53.404Z,92492.22
2022-08-14T06:18:25.279Z,92498.94
2022-08-14T06:19:57.164Z,92500.09
2022-08-14T06:21:29.152Z,92497.75
2022-08-14T06:23:01.504Z,92498.44
2022-08-14T06:24:35.005Z,92500.34
2022-08-14T06:26:07.506Z,92502.63
2022-08-14T06:27:45.882Z,92497.63
2022-08-14T06:29:17.733Z,92496.88
2022-08-14T06:30:49.505Z,92501.97
2022-08-14T06:32:37.895Z,92500.09
2022-08-14T06:35:02.544Z,92494.72
2022-08-14T06:36:02.931Z,92499.41
2022-08-14T06:37:41.434Z,92499.06
2022-08-14T06:39:13.273Z,92506.50
2022-08-14T06:40:49.542Z,92494.13
2022-08-14T06:42:32.383Z,92503.50
2022-08-14T06:44:04.744Z,92502.31
2022-08-14T06:45:37.093Z,92509.72
2022-08-14T06:47:10.360Z,92505.72
2022-08-14T06:48:44.225Z,92506.88
2022-08-14T06:50:17.158Z,92507.22
2022-08-14T06:51:49.990Z,92501.00
2022-08-14T06:53:27.869Z,92498.72
2022-08-14T06:55:00.274Z,92496.78
2022-08-14T06:56:32.000Z,92502.22
2022-08-14T06:58:03.851Z,92502.63
2022-08-14T06:59:37.562Z,92502.28
2022-08-14T07:01:31.213Z,92501.19
2022-08-14T07:03:21.833Z,92505.13
2022-08-14T07:05:12.442Z,92507.84
2022-08-14T07:06:54.876Z,92507.13
2022-08-14T07:08:31.415Z,92503.28
2022-08-14T07:10:05.236Z,92503.34
2022-08-14T07:11:37.511Z,92504.94
2022-08-14T07:13:09.911Z,92499.47
2022-08-14T07:14:41.932Z,92492.47
2022-08-14T07:16:13.764Z,92500.28
2022-08-14T07:17:46.764Z,92485.94
2022-08-14T07:19:23.902Z,92492.22
2022-08-14T07:20:56.849Z,92488.84
2022-08-14T07:22:32.673Z,92492.44
2022-08-14T07:24:05.306Z,92487.50
2022-08-14T07:25:42.283Z,92489.91
2022-08-14T07:27:15.635Z,92489.19
2022-08-14T07:28:47.467Z,92491.22
2022-08-14T07:30:34.344Z,92492.13
2022-08-14T07:32:07.018Z,92490.63
2022-08-14T07:33:45.478Z,92495.78
2022-08-14T07:35:17.625Z,92493.44
2022-08-14T07:36:58.038Z,92495.81
2022-08-14T14:04:35.538Z,92318.69
2022-08-14T14:06:07.505Z,92317.06
2022-08-14T14:07:43.429Z,92312.16
2022-08-14T14:09:16.517Z,92314.66
2022-08-14T14:10:48.761Z,92310.56
2022-08-14T14:12:37.929Z,92309.16
2022-08-14T14:14:44.717Z,92317.91
2022-08-14T14:16:06.273Z,92307.44
2022-08-14T14:17:39.374Z,92320.25
2022-08-14T14:19:11.627Z,92319.72
2022-08-14T14:20:44.172Z,92318.00
2022-08-14T14:40:52.125Z,92303.66
2022-08-14T14:55:59.525Z,92293.84
2022-08-14T14:57:35.184Z,92291.13
2022-08-14T14:59:07.444Z,92298.97
2022-08-14T15:00:39.622Z,92304.09
2022-08-14T15:02:15.588Z,92308.75
2022-08-14T15:03:50.199Z,92312.63
2022-08-14T15:05:24.557Z,92310.66
2022-08-14T15:07:00.770Z,92316.53
2022-08-14T15:08:56.695Z,92310.66
2022-08-14T15:10:34.182Z,92313.00
2022-08-14T15:12:34.579Z,92310.25
2022-08-14T15:13:58.823Z,92310.63
2022-08-14T15:15:33.061Z,92316.09
2022-08-14T15:17:06.744Z,92311.00
2022-08-14T15:18:46.875Z,92308.22
2022-08-14T15:20:35.823Z,92303.94
2022-08-14T15:22:37.340Z,92308.66
2022-08-14T15:24:20.272Z,92300.84
2022-08-14T15:26:24.283Z,92302.03
2022-08-14T15:28:21.741Z,92300.13
2022-08-14T15:30:05.247Z,92302.50
2022-08-14T15:31:49.888Z,92299.41
2022-08-14T15:34:00.950Z,92300.94
2022-08-14T15:35:44.928Z,92311.91
2022-08-14T15:37:23.205Z,92297.03
2022-08-14T15:38:59.534Z,92289.19
2022-08-14T15:40:31.395Z,92290.75
2022-08-14T15:42:14.731Z,92292.34
2022-08-14T15:43:48.903Z,92287.66
2022-08-14T15:45:23.262Z,92283.34
2022-08-14T15:46:56.377Z,92279.47
2022-08-14T15:48:30.425Z,92286.91
2022-08-14T15:50:07.566Z,92286.09
2022-08-14T15:51:42.358Z,92286.47
2022-08-14T15:53:15.788Z,92288.03
2022-08-14T15:54:49.119Z,92283.38
2022-08-14T15:56:42.287Z,92287.25
2022-08-14T15:58:14.479Z,92281.00
2022-08-14T16:00:05.191Z,92288.41
2022-08-14T16:01:54.599Z,92290.00
2022-08-14T16:03:36.485Z,92291.16
2022-08-14T16:05:12.083Z,92295.47
2022-08-14T16:06:45.753Z,92302.50
2022-08-14T16:08:29.440Z,92311.88
2022-08-14T16:10:27.894Z,92307.97
2022-08-14T16:11:54.605Z,92304.06
2022-08-14T16:13:39.497Z,92316.94
2022-08-14T16:15:13.265Z,92312.66
2022-08-14T16:16:51.785Z,92311.09
2022-08-14T16:18:36.710Z,92312.66
2022-08-14T16:20:08.737Z,92317.34
2022-08-14T16:22:02.060Z,92311.84
2022-08-14T16:25:34.473Z,92306.41
2022-08-14T16:27:07.561Z,92302.88
2022-08-14T16:28:39.851Z,92302.88
2022-08-14T16:30:20.855Z,92302.91
2022-08-14T16:32:01.513Z,92304.06
2022-08-14T16:33:58.747Z,92298.97
2022-08-14T16:35:42.244Z,92306.41
2022-08-14T16:37:21.045Z,92299.75
2022-08-14T16:38:54.824Z,92300.94
2022-08-14T16:40:24.218Z,92307.56
2022-08-14T16:40:34.522Z,92299.38
2022-08-14T16:42:39.044Z,92300.53
2022-08-14T16:44:13.762Z,92307.56
2022-08-14T16:45:54.012Z,92300.91
2022-08-14T16:47:31.997Z,92305.22
2022-08-14T16:49:07.351Z,92306.34
2022-08-14T16:50:43.173Z,92308.72
2022-08-14T16:52:26.261Z,92303.25
2022-08-14T16:54:33.956Z,92307.16
2022-08-14T16:56:30.872Z,92315.31
2022-08-14T16:58:09.006Z,92305.94
2022-08-14T16:59:52.190Z,92302.44
2022-08-14T17:01:28.709Z,92297.34
2022-08-14T17:03:18.628Z,92304.38
2022-08-14T17:04:50.525Z,92301.63
2022-08-14T17:06:45.531Z,92298.44
2022-08-14T17:08:41.706Z,92304.69
2022-08-14T17:10:12.475Z,92306.59
2022-08-14T17:11:54.589Z,92312.06
2022-08-14T17:13:58.154Z,92316.31
2022-08-14T17:15:27.371Z,92324.09
2022-08-14T17:16:59.894Z,92321.72
2022-08-14T17:18:44.581Z,92334.59
2022-08-14T17:20:53.357Z,92335.03
2022-08-14T17:22:14.218Z,92341.31
2022-08-14T17:23:46.569Z,92345.63
2022-08-14T17:25:22.067Z,92341.31
2022-08-14T17:26:55.242Z,92344.06
2022-08-14T17:28:51.085Z,92339.00
2022-08-14T17:30:32.189Z,92344.50
2022-08-14T17:34:02.431Z,92345.28
2022-08-14T17:35:57.419Z,92351.13
2022-08-14T17:37:30.300Z,92354.25
2022-08-14T17:39:11.860Z,92352.31
2022-08-14T17:40:45.093Z,92353.47
2022-08-14T17:42:17.365Z,92349.19
2022-08-14T17:44:33.907Z,92347.59
2022-08-14T17:46:37.083Z,92347.19
2022-08-14T17:49:14.691Z,92348.75
2022-08-14T17:51:00.404Z,92349.91
2022-08-14T17:52:16.738Z,92343.66
2022-08-14T17:53:52.651Z,92343.66
2022-08-14T17:56:01.378Z,92339.78
2022-08-14T17:57:17.960Z,92342.50
2022-08-14T17:58:50.014Z,92352.25
2022-08-14T18:00:22.589Z,92351.44
2022-08-14T18:01:54.570Z,92355.72
2022-08-14T18:03:49.931Z,92355.34
2022-08-14T18:05:23.194Z,92356.88
2022-08-14T18:07:50.466Z,92360.75
2022-08-14T18:09:04.444Z,92359.19
2022-08-14T18:10:55.522Z,92356.44
2022-08-14T18:12:36.516Z,92359.94
2022-08-14T18:14:09.415Z,92359.13
2022-08-14T18:16:02.131Z,92355.59
2022-08-14T18:17:40.892Z,92360.66
2022-08-14T18:19:12.636Z,92371.19
2022-08-14T18:21:40.826Z,92373.53
2022-08-14T18:22:39.400Z,92370.81
2022-08-14T18:24:28.524Z,92372.38
2022-08-14T18:26:04.743Z,92375.09
2022-08-14T18:27:41.693Z,92375.84
2022-08-14T18:29:14.935Z,92373.91
2022-08-14T18:30:58.658Z,92369.19
2022-08-14T18:32:33.622Z,92375.03
2022-08-14T18:34:11.711Z,92371.91
2022-08-14T18:35:58.241Z,92367.63
2022-08-14T18:37:31.926Z,92376.13
2022-08-14T18:39:22.763Z,92373.41
2022-08-14T18:40:55.046Z,92371.81
2022-08-14T18:42:30.445Z,92370.19
2022-08-14T18:44:02.635Z,92378.75
2022-08-14T18:45:41.577Z,92384.59
2022-08-14T18:47:16.047Z,92373.28
2022-08-14T18:48:51.880Z,92374.84
2022-08-14T18:50:27.143Z,92372.09
2022-08-14T18:52:18.955Z,92370.53
2022-08-14T18:53:52.558Z,92377.94
2022-08-14T18:55:25.803Z,92370.13
2022-08-14T18:57:01.540Z,92368.97
2022-08-14T18:58:56.876Z,92370.16
2022-08-14T19:00:33.295Z,92368.53
2022-08-14T19:02:24.297Z,92370.47
2022-08-14T19:04:04.006Z,92371.22
2022-08-14T19:05:47.687Z,92366.13
2022-08-14T19:07:20.213Z,92369.63
2022-08-14T19:08:54.953Z,92362.97
2022-08-14T19:10:31.653Z,92364.97
2022-08-14T19:12:04.200Z,92360.28
2022-08-14T19:13:48.570Z,92371.97
2022-08-14T19:15:26.225Z,92365.38
2022-08-14T19:16:58.471Z,92365.38
2022-08-14T19:18:38.437Z,92370.00
2022-08-14T19:20:11.189Z,92368.78
2022-08-14T19:21:56.117Z,92371.91
2022-08-14T19:23:40.664Z,92370.31
2022-08-14T19:25:35.055Z,92377.31
2022-08-14T19:27:16.666Z,92372.66
2022-08-14T19:28:51.264Z,92376.94
2022-08-14T19:30:24.289Z,92372.66
2022-08-14T19:31:59.083Z,92368.75
2022-08-14T19:33:46.896Z,92381.19
2022-08-14T19:35:41.703Z,92376.09
2022-08-14T19:37:37.831Z,92383.88
2022-08-14T19:39:09.885Z,92378.38
2022-08-14T19:40:44.398Z,92383.06
2022-08-14T19:42:28.308Z,92383.81
2022-08-14T19:44:10.423Z,92377.91
2022-08-14T19:45:42.416Z,92373.19
2022-08-14T19:47:14.692Z,92379.81
2022-08-14T19:48:56.895Z,92379.34
2022-08-14T19:50:40.526Z,92382.44
2022-08-14T19:52:42.621Z,92386.34
2022-08-14T19:54:18.544Z,92390.22
2022-08-14T19:56:04.766Z,92394.53
2022-08-14T19:57:36.588Z,92396.06
2022-08-14T19:59:09.485Z,92392.59
2022-08-14T20:00:52.139Z,92396.06
2022-08-14T20:02:30.118Z,92402.34
2022-08-14T20:04:02.910Z,92391.50
2022-08-14T20:05:45.827Z,92404.69
2022-08-14T20:07:59.651Z,92405.50
2022-08-14T20:11:11.086Z,92404.28
2022-08-14T20:11:58.508Z,92410.09
2022-08-14T20:13:23.693Z,92421.38
2022-08-14T20:14:55.897Z,92412.84
2022-08-14T20:16:37.532Z,92416.75
2022-08-14T20:18:22.133Z,92417.13
2022-08-14T20:20:02.945Z,92421.44
2022-08-14T20:21:58.018Z,92423.75
2022-08-14T20:23:38.185Z,92422.94
2022-08-14T20:25:10.852Z,92415.91
2022-08-14T20:26:46.947Z,92422.94
2022-08-14T20:28:29.768Z,92423.31
2022-08-14T20:30:28.910Z,92427.63
2022-08-14T20:31:54.960Z,92423.72
2022-08-14T20:33:27.627Z,92426.81
2022-08-14T20:35:01.303Z,92424.47
2022-08-14T20:36:37.382Z,92431.06
2022-08-14T20:38:31.721Z,92434.94
2022-08-14T20:40:01.053Z,92437.69
2022-08-14T20:41:33.279Z,92431.78
2022-08-14T20:43:25.351Z,92430.19
2022-08-14T20:45:23.559Z,92439.94
2022-08-14T20:46:59.219Z,92429.06
2022-08-14T20:48:50.699Z,92430.19
2022-08-14T20:50:28.545Z,92431.00
2022-08-14T20:52:19.143Z,92429.03
2022-08-14T20:53:59.098Z,92431.34
2022-08-14T20:55:32.594Z,92430.56
2022-08-14T20:57:08.244Z,92429.03
2022-08-14T20:58:44.012Z,92423.59
2022-08-14T21:00:52.899Z,92433.28
2022-08-14T21:02:29.518Z,92431.28
2022-08-14T21:04:02.572Z,92429.72
2022-08-14T21:05:36.725Z,92431.25
2022-08-14T21:07:26.099Z,92424.63
2022-08-14T21:09:03.988Z,92422.63
2022-08-14T21:10:44.466Z,92419.13
2022-08-14T21:12:33.664Z,92424.56
2022-08-14T21:14:25.140Z,92425.72
2022-08-14T21:16:00.565Z,92424.88
2022-08-14T21:17:37.538Z,92421.78
2022-08-14T21:19:09.497Z,92419.41
2022-08-14T21:20:48.096Z,92422.50
2022-08-14T21:22:19.740Z,92426.34
2022-08-14T21:23:54.799Z,92431.75
2022-08-14T21:25:28.886Z,92423.94
2022-08-14T21:27:12.049Z,92422.75
2022-08-14T21:28:45.062Z,92424.25
2022-08-14T21:30:20.883Z,92425.41
2022-08-14T21:31:56.001Z,92422.28
2022-08-14T21:33:28.055Z,92424.63
2022-08-14T21:35:02.250Z,92423.06
2022-08-14T21:36:41.524Z,92416.44
2022-08-14T21:38:18.189Z,92419.16
2022-08-14T21:39:57.144Z,92423.81
2022-08-14T21:41:41.749Z,92420.25
2022-08-14T21:43:17.806Z,92430.72
2022-08-14T21:44:53.498Z,92433.03
2022-08-14T21:46:25.216Z,92432.59
2022-08-14T21:47:57.234Z,92434.50
2022-08-14T21:49:38.396Z,92428.66
2022-08-14T21:51:54.147Z,92430.59
2022-08-14T21:53:03.813Z,92428.59
2022-08-14T21:54:50.068Z,92428.97
2022-08-14T21:56:22.167Z,92431.66
2022-08-14T21:58:51.519Z,92436.66
2022-08-14T22:00:03.332Z,92439.34
2022-08-14T22:02:00.578Z,92435.03
2022-08-14T22:03:35.209Z,92431.50
2022-08-14T22:05:09.336Z,92429.16
2022-08-14T22:06:41.826Z,92431.00
2022-08-14T22:08:16.175Z,92425.91
2022-08-14T22:09:55.447Z,92435.97
2022-08-14T22:11:27.680Z,92429.25
2022-08-14T22:13:00.805Z,92430.03
2022-08-14T22:14:32.873Z,92430.75
2022-08-14T22:16:58.718Z,92431.47
2022-08-14T22:18:07.054Z,92427.91
2022-08-14T22:19:47.466Z,92425.94
2022-08-14T22:21:26.674Z,92422.78
2022-08-14T22:22:58.931Z,92428.59
2022-08-14T22:24:37.964Z,92431.66
2022-08-14T22:26:22.751Z,92423.09
2022-08-14T22:28:05.957Z,92426.91
2022-08-14T22:29:37.689Z,92425.69
2022-08-14T22:31:22.141Z,92420.63
2022-08-14T22:32:57.969Z,92425.63
2022-08-14T22:34:29.966Z,92426.38
2022-08-14T22:36:01.813Z,92425.53
2022-08-14T22:37:44.853Z,92418.44
2022-08-14T22:39:17.251Z,92415.31
2022-08-14T22:41:16.941Z,92417.56
2022-08-14T22:42:42.463Z,92426.00
2022-08-14T22:44:32.577Z,92418.16
2022-08-14T22:46:14.550Z,92428.16
2022-08-14T22:47:47.319Z,92421.84
2022-08-14T22:50:30.413Z,92433.84
2022-08-14T22:51:13.594Z,92427.91
2022-08-14T22:52:49.167Z,92428.28
2022-08-14T22:54:52.193Z,92431.78
2022-08-14T22:56:20.153Z,92430.56
2022-08-14T22:57:53.545Z,92434.38
2022-08-14T22:59:36.474Z,92434.31
2022-08-14T23:01:11.907Z,92433.53
2022-08-14T23:02:44.190Z,92433.94
2022-08-14T23:04:35.477Z,92432.78
2022-08-14T23:07:01.531Z,92429.28
2022-08-14T23:09:00.464Z,92425.00
2022-08-14T23:10:03.595Z,92425.78
2022-08-14T23:11:48.739Z,92421.88
2022-08-14T23:13:20.583Z,92418.38
2022-08-14T23:14:52.489Z,92417.59
2022-08-14T23:16:24.231Z,92416.81
2022-08-14T23:17:56.313Z,92419.16
2022-08-14T23:19:34.867Z,92422.28
2022-08-14T23:21:12.649Z,92419.16
2022-08-14T23:22:44.711Z,92421.44
2022-08-14T23:24:17.547Z,92421.44
2022-08-14T23:26:47.145Z,92420.59
2022-08-14T23:28:03.555Z,92417.78
2022-08-14T23:29:37.936Z,92413.47
2022-08-14T23:31:12.556Z,92407.16
2022-08-14T23:32:47.235Z,92409.03
2022-08-14T23:34:25.362Z,92412.81
2022-08-14T23:36:03.562Z,92410.81
2022-08-14T23:37:35.309Z,92412.41
2022-08-14T23:39:10.318Z,92409.69
2022-08-14T23:40:44.573Z,92410.03
2022-08-14T23:42:17.984Z,92410.03
2022-08-14T23:43:50.514Z,92412.75
2022-08-14T23:45:37.220Z,92410.47
2022-08-14T23:47:12.251Z,92413.63
2022-08-14T23:48:58.797Z,92415.97
2022-08-14T23:50:34.152Z,92417.91
2022-08-14T23:52:51.380Z,92421.06
2022-08-14T23:53:59.925Z,92418.34
2022-08-14T23:55:34.503Z,92419.91
2022-08-14T23:57:06.476Z,92424.91
2022-08-14T23:58:38.159Z,92419.84
